sensor_id;sensor_type;location;lat;lon;timestamp;P1;P2;P0
46381;PMS5003;66809;52.974;-2.514;2023-05-15T00:01:51;5.15;3.9;
46381;PMS5003;66809;52.974;-2.514;2023-05-15T00:03:49;5.166666666666667;3.9;
46381;PMS5003;66809;52.974;-2.514;2023-05-15T00:05:49;5.183333333333334;3.8833333333333333;
46381;PMS5003;66809;52.974;-2.514;2023-05-15T00:07:49;5.383333333333334;3.9833333333333334;
46381;PMS5003;66809;52.974;-2.514;2023-05-15T00:09:50;5.2;3.8333333333333335;
46381;PMS5003;66809;52.974;-2.514;2023-05-15T00:11:49;5.0;3.6666666666666665;
46381;PMS5003;66809;52.974;-2.514;2023-05-15T00:13:49;4.9;3.6166666666666667;
46381;PMS5003;66809;52.974;-2.514;2023-05-15T00:15:49;4.85;3.5833333333333335;
46381;PMS5003;66809;52.974;-2.514;2023-05-15T00:17:49;4.833333333333333;3.5166666666666666;
46381;PMS5003;66809;52.974;-2.514;2023-05-15T00:19:49;4.683333333333334;3.45;
46381;PMS5003;66809;52.974;-2.514;2023-05-15T00:21:49;4.7;3.3833333333333333;
46381;PMS5003;66809;52.974;-2.514;2023-05-15T00:23:49;4.616666666666666;3.3666666666666667;
46381;PMS5003;66809;52.974;-2.514;2023-05-15T00:25:50;4.633333333333334;3.3;
46381;PMS5003;66809;52.974;-2.514;2023-05-15T00:27:49;4.616666666666666;3.3;
46381;PMS5003;66809;52.974;-2.514;2023-05-15T00:29:49;4.7;3.25;
46381;PMS5003;66809;52.974;-2.514;2023-05-15T00:31:49;4.683333333333334;3.25;
46381;PMS5003;66809;52.974;-2.514;2023-05-15T00:33:49;4.65;3.2333333333333334;
46381;PMS5003;66809;52.974;-2.514;2023-05-15T00:35:49;4.616666666666666;3.15;
46381;PMS5003;66809;52.974;-2.514;2023-05-15T00:37:49;4.6;3.15;
46381;PMS5003;66809;52.974;-2.514;2023-05-15T00:39:50;4.683333333333334;3.183333333333333;
46381;PMS5003;66809;52.974;-2.514;2023-05-15T00:41:49;4.716666666666667;3.1;
46381;PMS5003;66809;52.974;-2.514;2023-05-15T00:43:49;4.6;3.0166666666666666;
46381;PMS5003;66809;52.974;-2.514;2023-05-15T00:45:50;4.583333333333333;3.0166666666666666;
46381;PMS5003;66809;52.974;-2.514;2023-05-15T00:47:49;4.6;3.0;
46381;PMS5003;66809;52.974;-2.514;2023-05-15T00:49:49;4.516666666666667;2.966666666666667;
46381;PMS5003;66809;52.974;-2.514;2023-05-15T00:51:49;4.6;3.0;
46381;PMS5003;66809;52.974;-2.514;2023-05-15T00:53:50;4.616666666666666;2.966666666666667;
46381;PMS5003;66809;52.974;-2.514;2023-05-15T00:55:49;4.633333333333334;2.9833333333333334;
46381;PMS5003;66809;52.974;-2.514;2023-05-15T00:57:49;4.616666666666666;2.9833333333333334;
46381;PMS5003;66809;52.974;-2.514;2023-05-15T00:59:49;4.7;3.0166666666666666;
46381;PMS5003;66809;52.974;-2.514;2023-05-15T01:01:49;4.733333333333333;3.033333333333333;
46381;PMS5003;66809;52.974;-2.514;2023-05-15T01:03:49;4.683333333333334;3.0;
46381;PMS5003;66809;52.974;-2.514;2023-05-15T01:05:49;4.583333333333333;2.933333333333333;
46381;PMS5003;66809;52.974;-2.514;2023-05-15T01:07:51;4.416666666666667;2.783333333333333;
46381;PMS5003;66809;52.974;-2.514;2023-05-15T01:09:50;4.483333333333333;2.816666666666667;
46381;PMS5003;66809;52.974;-2.514;2023-05-15T01:11:49;4.55;2.85;
46381;PMS5003;66809;52.974;-2.514;2023-05-15T01:13:49;4.533333333333333;2.85;
46381;PMS5003;66809;52.974;-2.514;2023-05-15T01:15:49;4.516666666666667;2.8333333333333335;
46381;PMS5003;66809;52.974;-2.514;2023-05-15T01:17:49;4.433333333333334;2.8;
46381;PMS5003;66809;52.974;-2.514;2023-05-15T01:19:49;4.533333333333333;2.8333333333333335;
46381;PMS5003;66809;52.974;-2.514;2023-05-15T01:21:56;4.533333333333333;2.85;
46381;PMS5003;66809;52.974;-2.514;2023-05-15T01:23:51;4.6;2.9;
46381;PMS5003;66809;52.974;-2.514;2023-05-15T01:25:55;4.6;2.8833333333333333;
46381;PMS5003;66809;52.974;-2.514;2023-05-15T01:27:50;4.616666666666666;2.9;
46381;PMS5003;66809;52.974;-2.514;2023-05-15T01:29:52;4.566666666666666;2.933333333333333;
46381;PMS5003;66809;52.974;-2.514;2023-05-15T01:31:49;4.566666666666666;2.933333333333333;
46381;PMS5003;66809;52.974;-2.514;2023-05-15T01:33:49;4.633333333333334;2.95;
46381;PMS5003;66809;52.974;-2.514;2023-05-15T01:35:49;4.633333333333334;2.966666666666667;
46381;PMS5003;66809;52.974;-2.514;2023-05-15T01:37:50;4.666666666666667;2.9166666666666665;
46381;PMS5003;66809;52.974;-2.514;2023-05-15T01:39:50;4.666666666666667;2.933333333333333;
46381;PMS5003;66809;52.974;-2.514;2023-05-15T01:41:50;4.566666666666666;2.9;
46381;PMS5003;66809;52.974;-2.514;2023-05-15T01:43:51;4.633333333333334;2.9;
46381;PMS5003;66809;52.974;-2.514;2023-05-15T01:45:49;4.616666666666666;2.8333333333333335;
46381;PMS5003;66809;52.974;-2.514;2023-05-15T01:47:49;4.5;2.8;
46381;PMS5003;66809;52.974;-2.514;2023-05-15T01:49:49;4.633333333333334;2.8333333333333335;
46381;PMS5003;66809;52.974;-2.514;2023-05-15T01:51:50;4.5;2.783333333333333;
46381;PMS5003;66809;52.974;-2.514;2023-05-15T01:53:49;4.433333333333334;2.75;
46381;PMS5003;66809;52.974;-2.514;2023-05-15T01:55:49;4.533333333333333;2.7333333333333334;
46381;PMS5003;66809;52.974;-2.514;2023-05-15T01:57:49;4.566666666666666;2.7333333333333334;
46381;PMS5003;66809;52.974;-2.514;2023-05-15T01:59:49;4.466666666666667;2.6666666666666665;
46381;PMS5003;66809;52.974;-2.514;2023-05-15T02:01:49;4.35;2.6;
46381;PMS5003;66809;52.974;-2.514;2023-05-15T02:03:49;4.316666666666666;2.55;
46381;PMS5003;66809;52.974;-2.514;2023-05-15T02:05:50;4.366666666666666;2.566666666666667;
46381;PMS5003;66809;52.974;-2.514;2023-05-15T02:07:49;4.316666666666666;2.6166666666666667;
46381;PMS5003;66809;52.974;-2.514;2023-05-15T02:09:50;4.233333333333333;2.6;
46381;PMS5003;66809;52.974;-2.514;2023-05-15T02:11:49;4.166666666666667;2.566666666666667;
46381;PMS5003;66809;52.974;-2.514;2023-05-15T02:13:49;4.15;2.566666666666667;
46381;PMS5003;66809;52.974;-2.514;2023-05-15T02:15:50;4.166666666666667;2.533333333333333;
46381;PMS5003;66809;52.974;-2.514;2023-05-15T02:17:49;4.25;2.6;
46381;PMS5003;66809;52.974;-2.514;2023-05-15T02:19:49;4.166666666666667;2.533333333333333;
46381;PMS5003;66809;52.974;-2.514;2023-05-15T02:21:49;4.25;2.6333333333333333;
46381;PMS5003;66809;52.974;-2.514;2023-05-15T02:23:49;4.183333333333334;2.55;
46381;PMS5003;66809;52.974;-2.514;2023-05-15T02:25:53;4.066666666666666;2.533333333333333;
46381;PMS5003;66809;52.974;-2.514;2023-05-15T02:27:50;3.966666666666667;2.5;
46381;PMS5003;66809;52.974;-2.514;2023-05-15T02:29:53;3.8666666666666667;2.466666666666667;
46381;PMS5003;66809;52.974;-2.514;2023-05-15T02:31:51;3.8333333333333335;2.4;
46381;PMS5003;66809;52.974;-2.514;2023-05-15T02:33:51;3.716666666666667;2.3666666666666667;
46381;PMS5003;66809;52.974;-2.514;2023-05-15T02:35:50;3.783333333333333;2.3833333333333333;
46381;PMS5003;66809;52.974;-2.514;2023-05-15T02:37:51;3.6666666666666665;2.35;
46381;PMS5003;66809;52.974;-2.514;2023-05-15T02:39:49;3.466666666666667;2.183333333333333;
46381;PMS5003;66809;52.974;-2.514;2023-05-15T02:41:49;3.5;2.183333333333333;
46381;PMS5003;66809;52.974;-2.514;2023-05-15T02:43:50;3.466666666666667;2.2;
46381;PMS5003;66809;52.974;-2.514;2023-05-15T02:45:49;3.3833333333333333;2.2;
46381;PMS5003;66809;52.974;-2.514;2023-05-15T02:47:49;3.316666666666667;2.1333333333333333;
46381;PMS5003;66809;52.974;-2.514;2023-05-15T02:49:50;3.2333333333333334;2.1333333333333333;
46381;PMS5003;66809;52.974;-2.514;2023-05-15T02:51:49;3.2666666666666666;2.1;
46381;PMS5003;66809;52.974;-2.514;2023-05-15T02:53:49;3.2333333333333334;2.0833333333333335;
46381;PMS5003;66809;52.974;-2.514;2023-05-15T02:55:49;3.1;2.033333333333333;
46381;PMS5003;66809;52.974;-2.514;2023-05-15T02:57:49;3.033333333333333;2.033333333333333;
46381;PMS5003;66809;52.974;-2.514;2023-05-15T02:59:49;3.1;2.033333333333333;
46381;PMS5003;66809;52.974;-2.514;2023-05-15T03:01:49;3.1666666666666665;2.1;
46381;PMS5003;66809;52.974;-2.514;2023-05-15T03:03:50;3.1666666666666665;2.066666666666667;
46381;PMS5003;66809;52.974;-2.514;2023-05-15T03:05:49;3.066666666666667;2.0166666666666666;
46381;PMS5003;66809;52.974;-2.514;2023-05-15T03:07:49;3.15;2.0166666666666666;
46381;PMS5003;66809;52.974;-2.514;2023-05-15T03:09:50;3.216666666666667;2.05;
46381;PMS5003;66809;52.974;-2.514;2023-05-15T03:11:49;3.2333333333333334;2.033333333333333;
46381;PMS5003;66809;52.974;-2.514;2023-05-15T03:13:49;3.183333333333333;2.0;
46381;PMS5003;66809;52.974;-2.514;2023-05-15T03:15:50;3.15;1.9833333333333334;
46381;PMS5003;66809;52.974;-2.514;2023-05-15T03:17:49;3.1;1.95;
46381;PMS5003;66809;52.974;-2.514;2023-05-15T03:19:49;3.05;1.9333333333333333;
46381;PMS5003;66809;52.974;-2.514;2023-05-15T03:21:50;2.8833333333333333;1.7833333333333334;
46381;PMS5003;66809;52.974;-2.514;2023-05-15T03:23:49;2.7666666666666666;1.75;
46381;PMS5003;66809;52.974;-2.514;2023-05-15T03:25:49;2.7333333333333334;1.7166666666666666;
46381;PMS5003;66809;52.974;-2.514;2023-05-15T03:27:49;2.7666666666666666;1.7166666666666666;
46381;PMS5003;66809;52.974;-2.514;2023-05-15T03:29:49;2.783333333333333;1.7;
46381;PMS5003;66809;52.974;-2.514;2023-05-15T03:31:49;2.716666666666667;1.6833333333333333;
46381;PMS5003;66809;52.974;-2.514;2023-05-15T03:33:49;2.65;1.6166666666666667;
46381;PMS5003;66809;52.974;-2.514;2023-05-15T03:35:49;2.55;1.5666666666666667;
46381;PMS5003;66809;52.974;-2.514;2023-05-15T03:37:50;2.566666666666667;1.6;
46381;PMS5003;66809;52.974;-2.514;2023-05-15T03:39:49;2.6166666666666667;1.65;
46381;PMS5003;66809;52.974;-2.514;2023-05-15T03:41:49;2.533333333333333;1.6333333333333333;
46381;PMS5003;66809;52.974;-2.514;2023-05-15T03:43:49;2.6166666666666667;1.65;
46381;PMS5003;66809;52.974;-2.514;2023-05-15T03:45:49;2.6666666666666665;1.6833333333333333;
46381;PMS5003;66809;52.974;-2.514;2023-05-15T03:47:49;2.7666666666666666;1.75;
46381;PMS5003;66809;52.974;-2.514;2023-05-15T03:49:49;2.75;1.7333333333333334;
46381;PMS5003;66809;52.974;-2.514;2023-05-15T03:51:49;2.716666666666667;1.7333333333333334;
46381;PMS5003;66809;52.974;-2.514;2023-05-15T03:53:50;2.8833333333333333;1.8166666666666667;
46381;PMS5003;66809;52.974;-2.514;2023-05-15T03:55:49;2.95;1.8666666666666667;
46381;PMS5003;66809;52.974;-2.514;2023-05-15T03:57:49;3.0;1.8666666666666667;
46381;PMS5003;66809;52.974;-2.514;2023-05-15T03:59:49;2.8666666666666667;1.8166666666666667;
46381;PMS5003;66809;52.974;-2.514;2023-05-15T04:01:49;2.85;1.8;
46381;PMS5003;66809;52.974;-2.514;2023-05-15T04:03:49;2.8666666666666667;1.8833333333333333;
46381;PMS5003;66809;52.974;-2.514;2023-05-15T04:05:49;2.8833333333333333;1.9166666666666667;
46381;PMS5003;66809;52.974;-2.514;2023-05-15T04:07:49;2.783333333333333;1.8833333333333333;
46381;PMS5003;66809;52.974;-2.514;2023-05-15T04:09:50;2.75;1.85;
46381;PMS5003;66809;52.974;-2.514;2023-05-15T04:11:49;2.9166666666666665;1.9;
46381;PMS5003;66809;52.974;-2.514;2023-05-15T04:13:49;2.966666666666667;1.9166666666666667;
46381;PMS5003;66809;52.974;-2.514;2023-05-15T04:15:50;2.95;1.9166666666666667;
46381;PMS5003;66809;52.974;-2.514;2023-05-15T04:17:50;3.05;1.9333333333333333;
46381;PMS5003;66809;52.974;-2.514;2023-05-15T04:19:50;3.1666666666666665;2.0166666666666666;
46381;PMS5003;66809;52.974;-2.514;2023-05-15T04:21:49;3.1333333333333333;1.9833333333333334;
46381;PMS5003;66809;52.974;-2.514;2023-05-15T04:23:49;3.2333333333333334;2.0166666666666666;
46381;PMS5003;66809;52.974;-2.514;2023-05-15T04:25:50;3.25;2.0;
46381;PMS5003;66809;52.974;-2.514;2023-05-15T04:27:49;3.3666666666666667;2.05;
46381;PMS5003;66809;52.974;-2.514;2023-05-15T04:29:49;3.4166666666666665;2.0833333333333335;
46381;PMS5003;66809;52.974;-2.514;2023-05-15T04:31:50;3.3833333333333333;2.033333333333333;
46381;PMS5003;66809;52.974;-2.514;2023-05-15T04:33:49;3.433333333333333;2.066666666666667;
46381;PMS5003;66809;52.974;-2.514;2023-05-15T04:35:49;3.466666666666667;2.1166666666666667;
46381;PMS5003;66809;52.974;-2.514;2023-05-15T04:37:50;3.533333333333333;2.1666666666666665;
46381;PMS5003;66809;52.974;-2.514;2023-05-15T04:39:49;3.566666666666667;2.183333333333333;
46381;PMS5003;66809;52.974;-2.514;2023-05-15T04:41:49;3.6666666666666665;2.216666666666667;
46381;PMS5003;66809;52.974;-2.514;2023-05-15T04:43:50;3.65;2.25;
46381;PMS5003;66809;52.974;-2.514;2023-05-15T04:45:49;3.683333333333333;2.2666666666666666;
46381;PMS5003;66809;52.974;-2.514;2023-05-15T04:47:49;3.7333333333333334;2.2666666666666666;
46381;PMS5003;66809;52.974;-2.514;2023-05-15T04:49:50;3.7;2.25;
46381;PMS5003;66809;52.974;-2.514;2023-05-15T04:51:49;3.783333333333333;2.3;
46381;PMS5003;66809;52.974;-2.514;2023-05-15T04:53:49;3.6666666666666665;2.283333333333333;
46381;PMS5003;66809;52.974;-2.514;2023-05-15T04:55:49;3.65;2.2666666666666666;
46381;PMS5003;66809;52.974;-2.514;2023-05-15T04:57:49;3.6;2.25;
46381;PMS5003;66809;52.974;-2.514;2023-05-15T04:59:49;3.716666666666667;2.3;
46381;PMS5003;66809;52.974;-2.514;2023-05-15T05:01:50;3.783333333333333;2.3833333333333333;
46381;PMS5003;66809;52.974;-2.514;2023-05-15T05:03:50;3.783333333333333;2.3833333333333333;
46381;PMS5003;66809;52.974;-2.514;2023-05-15T05:05:49;3.8666666666666667;2.3833333333333333;
46381;PMS5003;66809;52.974;-2.514;2023-05-15T05:07:49;3.9166666666666665;2.35;
46381;PMS5003;66809;52.974;-2.514;2023-05-15T05:09:50;4.05;2.4166666666666665;
46381;PMS5003;66809;52.974;-2.514;2023-05-15T05:11:49;4.0;2.3833333333333333;
46381;PMS5003;66809;52.974;-2.514;2023-05-15T05:13:49;4.066666666666666;2.433333333333333;
46381;PMS5003;66809;52.974;-2.514;2023-05-15T05:15:49;4.15;2.45;
46381;PMS5003;66809;52.974;-2.514;2023-05-15T05:17:49;4.233333333333333;2.533333333333333;
46381;PMS5003;66809;52.974;-2.514;2023-05-15T05:19:50;4.233333333333333;2.55;
46381;PMS5003;66809;52.974;-2.514;2023-05-15T05:21:49;4.283333333333333;2.6166666666666667;
46381;PMS5003;66809;52.974;-2.514;2023-05-15T05:23:49;4.233333333333333;2.6166666666666667;
46381;PMS5003;66809;52.974;-2.514;2023-05-15T05:25:49;4.233333333333333;2.6333333333333333;
46381;PMS5003;66809;52.974;-2.514;2023-05-15T05:27:49;4.216666666666667;2.65;
46381;PMS5003;66809;52.974;-2.514;2023-05-15T05:29:50;4.183333333333334;2.6166666666666667;
46381;PMS5003;66809;52.974;-2.514;2023-05-15T05:31:49;4.316666666666666;2.683333333333333;
46381;PMS5003;66809;52.974;-2.514;2023-05-15T05:33:49;4.333333333333333;2.683333333333333;
46381;PMS5003;66809;52.974;-2.514;2023-05-15T05:35:50;4.333333333333333;2.716666666666667;
46381;PMS5003;66809;52.974;-2.514;2023-05-15T05:37:49;4.3;2.683333333333333;
46381;PMS5003;66809;52.974;-2.514;2023-05-15T05:39:49;4.3;2.6666666666666665;
46381;PMS5003;66809;52.974;-2.514;2023-05-15T05:41:49;4.3;2.7;
46381;PMS5003;66809;52.974;-2.514;2023-05-15T05:43:49;4.3;2.683333333333333;
46381;PMS5003;66809;52.974;-2.514;2023-05-15T05:45:49;4.316666666666666;2.7;
46381;PMS5003;66809;52.974;-2.514;2023-05-15T05:47:50;4.3;2.7;
46381;PMS5003;66809;52.974;-2.514;2023-05-15T05:49:49;4.35;2.6666666666666665;
46381;PMS5003;66809;52.974;-2.514;2023-05-15T05:51:50;4.316666666666666;2.6666666666666665;
46381;PMS5003;66809;52.974;-2.514;2023-05-15T05:53:49;4.366666666666666;2.6666666666666665;
46381;PMS5003;66809;52.974;-2.514;2023-05-15T05:55:49;4.383333333333334;2.7;
46381;PMS5003;66809;52.974;-2.514;2023-05-15T05:57:49;4.416666666666667;2.7333333333333334;
46381;PMS5003;66809;52.974;-2.514;2023-05-15T05:59:50;4.416666666666667;2.7666666666666666;
46381;PMS5003;66809;52.974;-2.514;2023-05-15T06:01:49;4.366666666666666;2.716666666666667;
46381;PMS5003;66809;52.974;-2.514;2023-05-15T06:03:49;4.383333333333334;2.7333333333333334;
46381;PMS5003;66809;52.974;-2.514;2023-05-15T06:05:50;4.383333333333334;2.7666666666666666;
46381;PMS5003;66809;52.974;-2.514;2023-05-15T06:07:49;4.483333333333333;2.8833333333333333;
46381;PMS5003;66809;52.974;-2.514;2023-05-15T06:09:49;4.35;2.8;
46381;PMS5003;66809;52.974;-2.514;2023-05-15T06:11:49;4.316666666666666;2.8833333333333333;
46381;PMS5003;66809;52.974;-2.514;2023-05-15T06:13:50;4.333333333333333;2.9;
46381;PMS5003;66809;52.974;-2.514;2023-05-15T06:15:49;4.283333333333333;2.9166666666666665;
46381;PMS5003;66809;52.974;-2.514;2023-05-15T06:17:49;4.216666666666667;2.8833333333333333;
46381;PMS5003;66809;52.974;-2.514;2023-05-15T06:19:49;4.233333333333333;2.9;
46381;PMS5003;66809;52.974;-2.514;2023-05-15T06:21:49;4.283333333333333;2.8833333333333333;
46381;PMS5003;66809;52.974;-2.514;2023-05-15T06:23:49;4.366666666666666;2.9;
46381;PMS5003;66809;52.974;-2.514;2023-05-15T06:25:50;4.583333333333333;3.0166666666666666;
46381;PMS5003;66809;52.974;-2.514;2023-05-15T06:27:49;4.7;3.0833333333333335;
46381;PMS5003;66809;52.974;-2.514;2023-05-15T06:29:49;4.7;3.1333333333333333;
46381;PMS5003;66809;52.974;-2.514;2023-05-15T06:31:50;4.683333333333334;3.183333333333333;
46381;PMS5003;66809;52.974;-2.514;2023-05-15T06:33:49;4.716666666666667;3.183333333333333;
46381;PMS5003;66809;52.974;-2.514;2023-05-15T06:35:49;4.883333333333334;3.25;
46381;PMS5003;66809;52.974;-2.514;2023-05-15T06:37:50;4.85;3.2333333333333334;
46381;PMS5003;66809;52.974;-2.514;2023-05-15T06:39:49;4.816666666666666;3.25;
46381;PMS5003;66809;52.974;-2.514;2023-05-15T06:41:49;4.766666666666667;3.2;
46381;PMS5003;66809;52.974;-2.514;2023-05-15T06:43:49;4.883333333333334;3.2666666666666666;
46381;PMS5003;66809;52.974;-2.514;2023-05-15T06:45:49;4.866666666666666;3.3;
46381;PMS5003;66809;52.974;-2.514;2023-05-15T06:47:50;4.883333333333334;3.3333333333333335;
46381;PMS5003;66809;52.974;-2.514;2023-05-15T06:49:49;4.883333333333334;3.3666666666666667;
46381;PMS5003;66809;52.974;-2.514;2023-05-15T06:51:49;4.85;3.3333333333333335;
46381;PMS5003;66809;52.974;-2.514;2023-05-15T06:53:49;4.733333333333333;3.2666666666666666;
46381;PMS5003;66809;52.974;-2.514;2023-05-15T06:55:50;4.75;3.25;
46381;PMS5003;66809;52.974;-2.514;2023-05-15T06:57:49;4.7;3.2;
46381;PMS5003;66809;52.974;-2.514;2023-05-15T06:59:49;4.733333333333333;3.15;
46381;PMS5003;66809;52.974;-2.514;2023-05-15T07:01:49;4.716666666666667;3.1166666666666667;
46381;PMS5003;66809;52.974;-2.514;2023-05-15T07:03:49;4.816666666666666;3.1;
46381;PMS5003;66809;52.974;-2.514;2023-05-15T07:05:49;4.783333333333333;3.1;
46381;PMS5003;66809;52.974;-2.514;2023-05-15T07:07:49;4.6;2.966666666666667;
46381;PMS5003;66809;52.974;-2.514;2023-05-15T07:09:49;4.583333333333333;2.933333333333333;
46381;PMS5003;66809;52.974;-2.514;2023-05-15T07:11:49;4.566666666666666;2.8666666666666667;
46381;PMS5003;66809;52.974;-2.514;2023-05-15T07:13:50;4.566666666666666;2.816666666666667;
46381;PMS5003;66809;52.974;-2.514;2023-05-15T07:15:49;4.55;2.8;
46381;PMS5003;66809;52.974;-2.514;2023-05-15T07:17:49;4.466666666666667;2.716666666666667;
46381;PMS5003;66809;52.974;-2.514;2023-05-15T07:19:49;4.4;2.65;
46381;PMS5003;66809;52.974;-2.514;2023-05-15T07:21:49;4.266666666666667;2.5833333333333335;
46381;PMS5003;66809;52.974;-2.514;2023-05-15T07:23:49;4.15;2.55;
46381;PMS5003;66809;52.974;-2.514;2023-05-15T07:25:51;3.9166666666666665;2.433333333333333;
46381;PMS5003;66809;52.974;-2.514;2023-05-15T07:27:50;3.8;2.3666666666666667;
46381;PMS5003;66809;52.974;-2.514;2023-05-15T07:29:49;3.8333333333333335;2.3833333333333333;
46381;PMS5003;66809;52.974;-2.514;2023-05-15T07:31:49;3.7333333333333334;2.283333333333333;
46381;PMS5003;66809;52.974;-2.514;2023-05-15T07:33:49;3.816666666666667;2.316666666666667;
46381;PMS5003;66809;52.974;-2.514;2023-05-15T07:35:49;3.6333333333333333;2.216666666666667;
46381;PMS5003;66809;52.974;-2.514;2023-05-15T07:37:49;3.6666666666666665;2.2;
46381;PMS5003;66809;52.974;-2.514;2023-05-15T07:39:49;3.683333333333333;2.2;
46381;PMS5003;66809;52.974;-2.514;2023-05-15T07:41:49;3.683333333333333;2.216666666666667;
46381;PMS5003;66809;52.974;-2.514;2023-05-15T07:43:49;3.55;2.1333333333333333;
46381;PMS5003;66809;52.974;-2.514;2023-05-15T07:45:49;3.4833333333333334;2.0;
46381;PMS5003;66809;52.974;-2.514;2023-05-15T07:47:49;3.4;1.9166666666666667;
46381;PMS5003;66809;52.974;-2.514;2023-05-15T07:49:49;3.45;1.9;
46381;PMS5003;66809;52.974;-2.514;2023-05-15T07:51:49;3.3833333333333333;1.8666666666666667;
46381;PMS5003;66809;52.974;-2.514;2023-05-15T07:53:49;3.45;1.8833333333333333;
46381;PMS5003;66809;52.974;-2.514;2023-05-15T07:55:49;3.316666666666667;1.8;
46381;PMS5003;66809;52.974;-2.514;2023-05-15T07:57:49;3.3666666666666667;1.8;
46381;PMS5003;66809;52.974;-2.514;2023-05-15T07:59:49;3.25;1.75;
46381;PMS5003;66809;52.974;-2.514;2023-05-15T08:01:50;3.216666666666667;1.7;
46381;PMS5003;66809;52.974;-2.514;2023-05-15T08:03:49;3.0;1.6166666666666667;
46381;PMS5003;66809;52.974;-2.514;2023-05-15T08:05:49;2.9166666666666665;1.55;
46381;PMS5003;66809;52.974;-2.514;2023-05-15T08:07:50;2.933333333333333;1.5333333333333334;
46381;PMS5003;66809;52.974;-2.514;2023-05-15T08:09:49;3.0;1.6;
46381;PMS5003;66809;52.974;-2.514;2023-05-15T08:11:49;2.9833333333333334;1.55;
46381;PMS5003;66809;52.974;-2.514;2023-05-15T08:13:49;2.9166666666666665;1.5333333333333334;
46381;PMS5003;66809;52.974;-2.514;2023-05-15T08:15:49;2.8833333333333333;1.5;
46381;PMS5003;66809;52.974;-2.514;2023-05-15T08:17:49;2.85;1.5166666666666666;
46381;PMS5003;66809;52.974;-2.514;2023-05-15T08:19:50;2.8;1.4666666666666666;
46381;PMS5003;66809;52.974;-2.514;2023-05-15T08:21:49;2.8;1.45;
46381;PMS5003;66809;52.974;-2.514;2023-05-15T08:23:49;2.8833333333333333;1.4666666666666666;
46381;PMS5003;66809;52.974;-2.514;2023-05-15T08:25:49;2.933333333333333;1.5;
46381;PMS5003;66809;52.974;-2.514;2023-05-15T08:27:49;2.85;1.45;
46381;PMS5003;66809;52.974;-2.514;2023-05-15T08:29:49;2.8833333333333333;1.4333333333333333;
46381;PMS5003;66809;52.974;-2.514;2023-05-15T08:31:49;2.933333333333333;1.4833333333333334;
46381;PMS5003;66809;52.974;-2.514;2023-05-15T08:33:49;2.8333333333333335;1.4666666666666666;
46381;PMS5003;66809;52.974;-2.514;2023-05-15T08:35:50;2.85;1.45;
46381;PMS5003;66809;52.974;-2.514;2023-05-15T08:37:49;2.8333333333333335;1.45;
46381;PMS5003;66809;52.974;-2.514;2023-05-15T08:39:49;2.7666666666666666;1.4;
46381;PMS5003;66809;52.974;-2.514;2023-05-15T08:41:51;2.7666666666666666;1.4;
46381;PMS5003;66809;52.974;-2.514;2023-05-15T08:43:49;2.7;1.35;
46381;PMS5003;66809;52.974;-2.514;2023-05-15T08:45:49;2.7;1.4;
46381;PMS5003;66809;52.974;-2.514;2023-05-15T08:47:50;2.6333333333333333;1.4;
46381;PMS5003;66809;52.974;-2.514;2023-05-15T08:49:50;2.533333333333333;1.4;
46381;PMS5003;66809;52.974;-2.514;2023-05-15T08:51:49;2.6;1.4;
46381;PMS5003;66809;52.974;-2.514;2023-05-15T08:53:50;2.5;1.35;
46381;PMS5003;66809;52.974;-2.514;2023-05-15T08:55:49;2.466666666666667;1.35;
46381;PMS5003;66809;52.974;-2.514;2023-05-15T08:57:49;2.466666666666667;1.3833333333333333;
46381;PMS5003;66809;52.974;-2.514;2023-05-15T08:59:49;2.5;1.4166666666666667;
46381;PMS5003;66809;52.974;-2.514;2023-05-15T09:01:49;2.4833333333333334;1.4166666666666667;
46381;PMS5003;66809;52.974;-2.514;2023-05-15T09:03:49;2.5;1.4166666666666667;
46381;PMS5003;66809;52.974;-2.514;2023-05-15T09:05:50;2.566666666666667;1.45;
46381;PMS5003;66809;52.974;-2.514;2023-05-15T09:07:49;2.55;1.4833333333333334;
46381;PMS5003;66809;52.974;-2.514;2023-05-15T09:09:49;2.433333333333333;1.4;
46381;PMS5003;66809;52.974;-2.514;2023-05-15T09:11:50;2.4;1.3833333333333333;
46381;PMS5003;66809;52.974;-2.514;2023-05-15T09:13:49;2.35;1.3833333333333333;
46381;PMS5003;66809;52.974;-2.514;2023-05-15T09:15:49;2.35;1.4;
46381;PMS5003;66809;52.974;-2.514;2023-05-15T09:17:50;2.3333333333333335;1.3833333333333333;
46381;PMS5003;66809;52.974;-2.514;2023-05-15T09:19:49;2.4;1.45;
46381;PMS5003;66809;52.974;-2.514;2023-05-15T09:21:49;2.45;1.5;
46381;PMS5003;66809;52.974;-2.514;2023-05-15T09:23:49;2.4166666666666665;1.4666666666666666;
46381;PMS5003;66809;52.974;-2.514;2023-05-15T09:25:49;2.45;1.45;
46381;PMS5003;66809;52.974;-2.514;2023-05-15T09:27:49;2.45;1.4333333333333333;
46381;PMS5003;66809;52.974;-2.514;2023-05-15T09:29:49;2.3333333333333335;1.3833333333333333;
46381;PMS5003;66809;52.974;-2.514;2023-05-15T09:31:49;2.3;1.3833333333333333;
46381;PMS5003;66809;52.974;-2.514;2023-05-15T09:33:57;2.283333333333333;1.3666666666666667;
46381;PMS5003;66809;52.974;-2.514;2023-05-15T09:35:49;2.25;1.35;
46381;PMS5003;66809;52.974;-2.514;2023-05-15T09:37:55;2.3666666666666667;1.4;
46381;PMS5003;66809;52.974;-2.514;2023-05-15T09:39:49;2.4166666666666665;1.4166666666666667;
46381;PMS5003;66809;52.974;-2.514;2023-05-15T09:41:49;2.4166666666666665;1.4166666666666667;